KMYF/MYF METAR and TAF weather

Enter ICAO airport designator
Station Type Date Time Source
KMYF METAR 2021/08/05 03:53 UTC NOAA

KMYF 050353Z 32004KT 9SM CLR 21/17 A2989 RMK AO2 SLP116 T02060167


Station Type Date Time Source
KMYF Decoded METAR 2021/08/05 03:53 UTC NOAA

SAN DIEGO MONTGOMERY FIELD, CA, United States (KMYF) 32-49N 117-08W 136M
Aug 04, 2021 - 11:53 PM EDT / 2021.08.05 0353 UTC
Wind: from the NW (320 degrees) at 5 MPH (4 KT):0
Visibility: 9 mile(s):0
Sky conditions: clear
Temperature: 69.1 F (20.6 C)
Dew Point: 62.1 F (16.7 C)
Relative Humidity: 78%
Pressure (altimeter): 29.89 in. Hg (1012 hPa)
ob: KMYF 050353Z 32004KT 9SM CLR 21/17 A2989 RMK AO2 SLP116 T02060167
cycle: 4

Station Type Date Time Source
KMYF TAF UTC NOAA

Error!

Example: see airport list